Time;durP1;ratioP1;P1;durP2;ratioP2;P2;SDS_P1;SDS_P2;PMS_P1;PMS_P2;Temp;Humidity;BMP_temperature;BMP_pressure;BME280_temperature;BME280_humidity;BME280_pressure;Samples;Min_cycle;Max_cycle;Signal;HPM_P1;HPM_P2
2023/07/24 00:01:41;;;;;;;3.40;3.10;;;;;;;;;;5071414;28;20348;-57
2023/07/24 00:04:07;;;;;;;3.57;3.27;;;;;;;;;;5071205;28;20682;-57
2023/07/24 00:06:33;;;;;;;3.40;3.20;;;;;;;;;;5071022;28;20272;-58
2023/07/24 00:08:59;;;;;;;3.70;3.40;;;;;;;;;;5071408;28;20318;-58
2023/07/24 00:11:27;;;;;;;3.40;3.10;;;;;;;;;;5071277;28;20196;-58
2023/07/24 00:13:53;;;;;;;3.50;3.20;;;;;;;;;;5071238;28;20621;-58
2023/07/24 00:16:19;;;;;;;3.17;2.90;;;;;;;;;;5069801;28;20228;-58
2023/07/24 00:18:45;;;;;;;3.20;3.00;;;;;;;;;;5071121;28;20294;-58
2023/07/24 00:21:13;;;;;;;5.07;3.10;;;;;;;;;;5071136;28;20281;-58
2023/07/24 00:23:39;;;;;;;3.40;3.10;;;;;;;;;;5071236;28;20270;-58
2023/07/24 00:26:05;;;;;;;3.00;2.80;;;;;;;;;;5071550;28;20224;-58
2023/07/24 00:28:33;;;;;;;3.50;3.20;;;;;;;;;;5074516;28;20392;-58
2023/07/24 00:30:59;;;;;;;3.87;3.03;;;;;;;;;;5074574;28;20293;-58
2023/07/24 00:33:25;;;;;;;3.33;3.03;;;;;;;;;;5074617;28;20586;-57
2023/07/24 00:35:51;;;;;;;3.40;2.77;;;;;;;;;;5074569;28;20294;-57
2023/07/24 00:38:17;;;;;;;3.53;3.30;;;;;;;;;;5074355;28;20825;-57
2023/07/24 00:40:43;;;;;;;4.43;3.43;;;;;;;;;;5074483;28;20220;-57
2023/07/24 00:43:09;;;;;;;3.67;3.03;;;;;;;;;;5074269;28;20271;-58
2023/07/24 00:45:36;;;;;;;3.40;3.10;;;;;;;;;;5074353;28;20221;-57
2023/07/24 00:48:02;;;;;;;3.00;2.80;;;;;;;;;;5074261;28;20249;-57
2023/07/24 00:50:29;;;;;;;3.63;3.17;;;;;;;;;;5074071;28;20203;-57
2023/07/24 00:52:55;;;;;;;3.63;3.33;;;;;;;;;;5074334;28;20574;-56
2023/07/24 00:55:21;;;;;;;3.47;3.17;;;;;;;;;;5074027;28;20262;-56
2023/07/24 00:57:47;;;;;;;3.83;3.60;;;;;;;;;;5073850;28;20581;-58
2023/07/24 01:00:13;;;;;;;3.60;3.20;;;;;;;;;;5073966;28;20266;-57
2023/07/24 01:02:41;;;;;;;3.90;3.60;;;;;;;;;;5074117;28;20200;-56
2023/07/24 01:05:08;;;;;;;3.67;3.37;;;;;;;;;;5073869;28;20223;-57
2023/07/24 01:07:34;;;;;;;4.13;3.83;;;;;;;;;;5074026;28;20204;-57
2023/07/24 01:10:00;;;;;;;6.50;4.10;;;;;;;;;;5073804;28;20200;-57
2023/07/24 01:12:32;;;;;;;4.37;4.07;;;;;;;;;;5073782;28;20199;-57
2023/07/24 01:15:03;;;;;;;4.40;4.10;;;;;;;;;;5073785;28;20618;-57
2023/07/24 01:17:32;;;;;;;4.60;3.77;;;;;;;;;;5073638;28;20555;-57
2023/07/24 01:20:00;;;;;;;4.50;4.20;;;;;;;;;;5073720;28;20699;-57
2023/07/24 01:22:32;;;;;;;4.23;3.93;;;;;;;;;;5073714;28;20200;-57
2023/07/24 01:25:01;;;;;;;4.53;4.13;;;;;;;;;;5073569;28;20279;-58
2023/07/24 01:27:28;;;;;;;5.67;4.30;;;;;;;;;;5073385;28;20311;-57
2023/07/24 01:29:55;;;;;;;5.27;4.77;;;;;;;;;;5073648;28;20209;-58
2023/07/24 01:32:21;;;;;;;5.00;4.57;;;;;;;;;;5073328;28;20227;-57
2023/07/24 01:34:47;;;;;;;6.27;5.20;;;;;;;;;;5073452;28;20212;-57
2023/07/24 01:37:13;;;;;;;5.30;4.83;;;;;;;;;;5072828;28;20197;-57
2023/07/24 01:39:41;;;;;;;5.10;4.70;;;;;;;;;;5072985;28;20207;-57
2023/07/24 01:42:07;;;;;;;5.30;4.83;;;;;;;;;;5073238;28;20192;-57
2023/07/24 01:44:34;;;;;;;6.53;4.53;;;;;;;;;;5072991;28;20228;-57
2023/07/24 01:47:00;;;;;;;6.37;4.80;;;;;;;;;;5073073;28;20316;-57
2023/07/24 01:49:27;;;;;;;5.30;4.90;;;;;;;;;;5073132;28;20714;-57
2023/07/24 01:51:53;;;;;;;5.40;5.00;;;;;;;;;;5073413;28;20204;-57
2023/07/24 01:54:19;;;;;;;5.90;5.17;;;;;;;;;;5072903;28;20318;-57
2023/07/24 01:56:45;;;;;;;6.20;5.60;;;;;;;;;;5072815;28;20681;-57
2023/07/24 01:59:11;;;;;;;5.50;5.00;;;;;;;;;;5072952;28;20203;-57
2023/07/24 02:01:38;;;;;;;5.90;5.40;;;;;;;;;;5073064;28;20273;-57
2023/07/24 02:04:04;;;;;;;6.30;5.80;;;;;;;;;;5072751;28;20205;-57
2023/07/24 02:06:30;;;;;;;6.77;6.03;;;;;;;;;;5072522;28;20228;-57
2023/07/24 02:08:56;;;;;;;6.70;6.00;;;;;;;;;;5072783;28;20200;-57
2023/07/24 02:11:22;;;;;;;6.50;5.77;;;;;;;;;;5072530;28;20208;-57
2023/07/24 02:13:48;;;;;;;7.17;6.60;;;;;;;;;;5072623;28;20223;-57
2023/07/24 02:16:14;;;;;;;6.73;5.97;;;;;;;;;;5072463;28;20194;-57
2023/07/24 02:18:43;;;;;;;6.63;6.03;;;;;;;;;;5072673;28;20196;-58
2023/07/24 02:21:09;;;;;;;6.90;6.40;;;;;;;;;;5072467;28;20250;-57
2023/07/24 02:23:35;;;;;;;7.20;6.60;;;;;;;;;;5072254;28;20657;-57
2023/07/24 02:26:01;;;;;;;8.37;7.37;;;;;;;;;;5072242;28;20311;-57
2023/07/24 02:28:27;;;;;;;7.10;6.50;;;;;;;;;;5072233;28;20191;-57
2023/07/24 02:30:56;;;;;;;7.50;6.67;;;;;;;;;;5072476;28;20279;-58
2023/07/24 02:33:22;;;;;;;7.30;6.80;;;;;;;;;;5072247;28;20279;-57
2023/07/24 02:35:51;;;;;;;6.93;6.23;;;;;;;;;;5072158;28;20214;-57
2023/07/24 02:38:17;;;;;;;7.60;6.90;;;;;;;;;;5072063;28;20200;-56
2023/07/24 02:40:44;;;;;;;7.67;6.97;;;;;;;;;;5071973;28;20568;-57
2023/07/24 02:43:10;;;;;;;10.97;7.27;;;;;;;;;;5071878;28;20235;-57
2023/07/24 02:45:37;;;;;;;8.50;7.80;;;;;;;;;;5072048;28;20200;-57
2023/07/24 02:48:03;;;;;;;7.50;6.90;;;;;;;;;;5072012;28;20198;-57
2023/07/24 02:50:29;;;;;;;8.37;7.60;;;;;;;;;;5071769;28;20266;-57
2023/07/24 02:52:57;;;;;;;8.83;8.03;;;;;;;;;;5072244;28;20197;-57
2023/07/24 02:55:23;;;;;;;7.90;7.30;;;;;;;;;;5071948;28;20595;-57
2023/07/24 02:57:49;;;;;;;7.77;7.10;;;;;;;;;;5071869;28;20195;-57
2023/07/24 03:00:15;;;;;;;8.07;7.37;;;;;;;;;;5071725;28;20196;-57
2023/07/24 03:02:41;;;;;;;8.83;8.03;;;;;;;;;;5072027;28;20196;-57
2023/07/24 03:05:08;;;;;;;9.40;8.60;;;;;;;;;;5071711;28;20215;-57
2023/07/24 03:07:34;;;;;;;8.77;8.07;;;;;;;;;;5071760;28;20639;-57
2023/07/24 03:10:01;;;;;;;8.43;7.73;;;;;;;;;;5071630;28;20666;-57
2023/07/24 03:12:27;;;;;;;8.33;7.73;;;;;;;;;;5071524;28;20236;-57
2023/07/24 03:14:53;;;;;;;7.70;7.00;;;;;;;;;;5071802;28;20240;-57
2023/07/24 03:17:19;;;;;;;7.53;6.93;;;;;;;;;;5071600;28;20276;-57
2023/07/24 03:19:45;;;;;;;7.93;7.13;;;;;;;;;;5071557;28;20291;-57
2023/07/24 03:22:11;;;;;;;8.57;7.77;;;;;;;;;;5071637;28;20206;-57
2023/07/24 03:24:37;;;;;;;8.60;7.83;;;;;;;;;;5071544;28;20613;-57
2023/07/24 03:27:05;;;;;;;8.93;8.23;;;;;;;;;;5071375;28;20269;-57
2023/07/24 03:29:31;;;;;;;8.97;8.17;;;;;;;;;;5071427;28;20662;-57
2023/07/24 03:31:57;;;;;;;9.07;8.27;;;;;;;;;;5071642;28;20200;-57
2023/07/24 03:34:23;;;;;;;9.13;8.23;;;;;;;;;;5071290;28;20200;-57
2023/07/24 03:36:49;;;;;;;8.50;7.70;;;;;;;;;;5071046;28;20193;-57
2023/07/24 03:39:15;;;;;;;8.40;7.67;;;;;;;;;;5070065;28;20207;-57
2023/07/24 03:41:42;;;;;;;8.93;8.10;;;;;;;;;;5071322;28;20196;-57
2023/07/24 03:44:09;;;;;;;8.50;7.80;;;;;;;;;;5071340;28;20240;-57
2023/07/24 03:46:35;;;;;;;8.90;8.10;;;;;;;;;;5071375;28;20257;-57
2023/07/24 03:49:01;;;;;;;8.77;7.80;;;;;;;;;;5071321;28;20276;-57
2023/07/24 03:51:27;;;;;;;8.47;7.63;;;;;;;;;;5071287;28;20200;-57
2023/07/24 03:53:54;;;;;;;8.50;7.70;;;;;;;;;;5071405;28;20207;-57
2023/07/24 03:56:20;;;;;;;9.70;8.80;;;;;;;;;;5071064;28;20671;-58
2023/07/24 03:58:46;;;;;;;8.43;7.20;;;;;;;;;;5071261;28;20216;-57
2023/07/24 04:01:14;;;;;;;8.20;7.43;;;;;;;;;;5072165;28;20200;-57
2023/07/24 04:03:40;;;;;;;8.60;7.80;;;;;;;;;;5075181;28;20216;-57
2023/07/24 04:06:06;;;;;;;8.77;8.00;;;;;;;;;;5074884;28;20224;-58
2023/07/24 04:08:32;;;;;;;8.43;7.63;;;;;;;;;;5074917;28;20207;-57
2023/07/24 04:10:58;;;;;;;8.30;7.50;;;;;;;;;;5074894;28;20222;-58
2023/07/24 04:13:24;;;;;;;7.77;7.07;;;;;;;;;;5074783;28;20208;-57
2023/07/24 04:15:50;;;;;;;7.80;6.87;;;;;;;;;;5074748;28;20200;-57
2023/07/24 04:18:17;;;;;;;8.07;7.30;;;;;;;;;;5074747;28;20258;-57
2023/07/24 04:20:43;;;;;;;7.40;6.70;;;;;;;;;;5074777;28;20240;-57
2023/07/24 04:23:09;;;;;;;7.73;7.03;;;;;;;;;;5074726;28;20679;-57
2023/07/24 04:25:35;;;;;;;7.77;6.97;;;;;;;;;;5074636;28;20231;-57
2023/07/24 04:28:01;;;;;;;7.23;6.53;;;;;;;;;;5074609;28;20224;-57
2023/07/24 04:30:27;;;;;;;7.47;6.77;;;;;;;;;;5074502;28;20565;-57
2023/07/24 04:32:53;;;;;;;8.17;6.30;;;;;;;;;;5074735;28;20204;-57
2023/07/24 04:35:21;;;;;;;6.80;6.20;;;;;;;;;;5074390;28;20291;-57
2023/07/24 04:37:47;;;;;;;9.57;6.17;;;;;;;;;;5074487;28;20279;-58
2023/07/24 04:40:13;;;;;;;6.70;6.10;;;;;;;;;;5074318;28;20253;-57
2023/07/24 04:42:39;;;;;;;7.90;6.10;;;;;;;;;;5074293;28;20205;-58
2023/07/24 04:45:05;;;;;;;6.30;5.70;;;;;;;;;;5074329;28;20232;-57
2023/07/24 04:47:31;;;;;;;6.53;5.87;;;;;;;;;;5074100;28;20283;-57
2023/07/24 04:49:57;;;;;;;6.60;5.73;;;;;;;;;;5074298;28;20209;-57
2023/07/24 04:52:25;;;;;;;5.97;4.47;;;;;;;;;;5074226;28;20232;-58
2023/07/24 04:54:51;;;;;;;6.13;5.20;;;;;;;;;;5074255;28;20298;-57
2023/07/24 04:57:17;;;;;;;5.73;5.23;;;;;;;;;;5074156;28;20277;-57
2023/07/24 04:59:43;;;;;;;5.53;5.13;;;;;;;;;;5074183;28;20205;-58
2023/07/24 05:02:09;;;;;;;5.57;5.10;;;;;;;;;;5074083;28;20295;-57
2023/07/24 05:04:35;;;;;;;4.90;4.50;;;;;;;;;;5073870;28;20205;-57
2023/07/24 05:07:01;;;;;;;5.77;4.57;;;;;;;;;;5073861;28;20355;-57
2023/07/24 05:09:28;;;;;;;5.77;4.40;;;;;;;;;;5073885;28;20203;-57
2023/07/24 05:11:54;;;;;;;5.60;4.10;;;;;;;;;;5073518;28;20208;-57
2023/07/24 05:14:20;;;;;;;4.93;4.43;;;;;;;;;;5072722;28;20202;-57
2023/07/24 05:16:46;;;;;;;4.90;4.10;;;;;;;;;;5073623;28;20666;-57
2023/07/24 05:19:12;;;;;;;4.83;3.60;;;;;;;;;;5073625;28;20204;-58
2023/07/24 05:21:38;;;;;;;4.30;3.43;;;;;;;;;;5073711;28;20206;-58
2023/07/24 05:24:04;;;;;;;4.00;3.20;;;;;;;;;;5073648;28;20203;-58
2023/07/24 05:26:32;;;;;;;3.53;3.23;;;;;;;;;;5073310;28;20228;-58
2023/07/24 05:28:58;;;;;;;5.83;3.53;;;;;;;;;;5073610;28;20253;-58
2023/07/24 05:31:24;;;;;;;4.50;3.37;;;;;;;;;;5073487;28;20672;-58
2023/07/24 05:33:50;;;;;;;4.87;3.17;;;;;;;;;;5073361;28;20227;-58
2023/07/24 05:36:16;;;;;;;5.23;3.50;;;;;;;;;;5073388;28;20283;-58
2023/07/24 05:38:42;;;;;;;3.57;3.10;;;;;;;;;;5073306;28;20317;-58
2023/07/24 05:41:08;;;;;;;5.00;3.00;;;;;;;;;;5073430;28;20287;-58
2023/07/24 05:43:35;;;;;;;3.77;3.13;;;;;;;;;;5073318;28;20249;-57
2023/07/24 05:46:01;;;;;;;6.23;2.90;;;;;;;;;;5073148;28;20263;-58
2023/07/24 05:48:27;;;;;;;4.30;3.57;;;;;;;;;;5073248;28;20202;-58
2023/07/24 05:50:53;;;;;;;8.03;3.73;;;;;;;;;;5073195;28;20225;-59
2023/07/24 05:53:19;;;;;;;5.27;3.87;;;;;;;;;;5072946;28;20279;-57
2023/07/24 05:55:45;;;;;;;4.57;3.40;;;;;;;;;;5073010;28;20229;-54
2023/07/24 05:58:11;;;;;;;4.23;3.53;;;;;;;;;;5072995;28;20203;-54
2023/07/24 06:00:39;;;;;;;4.90;3.53;;;;;;;;;;5073270;28;20289;-55
2023/07/24 06:03:05;;;;;;;4.50;3.80;;;;;;;;;;5072848;28;20237;-55
2023/07/24 06:05:31;;;;;;;6.93;3.80;;;;;;;;;;5072585;28;20246;-55
2023/07/24 06:07:57;;;;;;;4.90;3.90;;;;;;;;;;5072790;28;20229;-54
2023/07/24 06:10:23;;;;;;;4.97;4.10;;;;;;;;;;5072749;28;20617;-54
2023/07/24 06:12:49;;;;;;;4.87;3.80;;;;;;;;;;5072791;28;20203;-54
2023/07/24 06:15:15;;;;;;;5.77;4.43;;;;;;;;;;5072491;28;20195;-54
2023/07/24 06:17:42;;;;;;;4.33;3.93;;;;;;;;;;5072559;28;20179;-53
2023/07/24 06:20:08;;;;;;;4.40;4.00;;;;;;;;;;5072810;28;20205;-53
2023/07/24 06:22:36;;;;;;;5.90;4.40;;;;;;;;;;5072367;28;20195;-54
2023/07/24 06:25:03;;;;;;;5.07;4.27;;;;;;;;;;5071935;28;20677;-54
2023/07/24 06:27:29;;;;;;;4.33;3.93;;;;;;;;;;5072180;28;20228;-54
2023/07/24 06:29:55;;;;;;;6.83;4.37;;;;;;;;;;5072403;28;20192;-55
2023/07/24 06:32:21;;;;;;;5.50;4.23;;;;;;;;;;5072074;28;20212;-54
2023/07/24 06:34:48;;;;;;;12.73;4.73;;;;;;;;;;5072340;28;20198;-54
2023/07/24 06:37:14;;;;;;;5.13;4.53;;;;;;;;;;5071909;28;20212;-56
2023/07/24 06:39:40;;;;;;;5.70;4.67;;;;;;;;;;5072263;28;20292;-57
2023/07/24 06:42:06;;;;;;;8.47;4.90;;;;;;;;;;5072053;28;20242;-55
2023/07/24 06:44:32;;;;;;;6.17;4.40;;;;;;;;;;5071864;28;20246;-58
2023/07/24 06:46:58;;;;;;;5.10;4.53;;;;;;;;;;5072184;28;20222;-58
2023/07/24 06:49:24;;;;;;;5.07;4.30;;;;;;;;;;5072205;28;20207;-57
2023/07/24 06:51:51;;;;;;;5.57;4.40;;;;;;;;;;5072291;28;20200;-57
2023/07/24 06:54:17;;;;;;;5.80;4.40;;;;;;;;;;5072052;28;20577;-57
2023/07/24 06:56:43;;;;;;;5.77;4.90;;;;;;;;;;5072131;28;20192;-57
2023/07/24 06:59:09;;;;;;;5.90;4.50;;;;;;;;;;5070378;28;20198;-57
2023/07/24 07:01:35;;;;;;;5.57;4.53;;;;;;;;;;5071463;28;20235;-57
2023/07/24 07:04:01;;;;;;;5.30;4.50;;;;;;;;;;5071484;28;20193;-57
2023/07/24 07:06:27;;;;;;;7.67;4.73;;;;;;;;;;5071372;28;20227;-57
2023/07/24 07:08:55;;;;;;;8.53;4.90;;;;;;;;;;5071636;28;20226;-58
2023/07/24 07:11:21;;;;;;;6.13;4.30;;;;;;;;;;5071355;28;20251;-57
2023/07/24 07:13:47;;;;;;;6.83;4.30;;;;;;;;;;5071416;28;20219;-58
2023/07/24 07:16:13;;;;;;;4.60;4.07;;;;;;;;;;5071315;28;20200;-58
2023/07/24 07:18:39;;;;;;;4.30;3.80;;;;;;;;;;5071465;28;20195;-58
2023/07/24 07:21:05;;;;;;;5.60;3.60;;;;;;;;;;5071393;28;20279;-58
2023/07/24 07:23:31;;;;;;;6.03;4.17;;;;;;;;;;5071279;28;20203;-58
2023/07/24 07:25:58;;;;;;;4.23;3.80;;;;;;;;;;5071325;28;20202;-58
2023/07/24 07:28:24;;;;;;;5.23;3.37;;;;;;;;;;5071402;28;20291;-57
2023/07/24 07:30:50;;;;;;;5.77;3.80;;;;;;;;;;5071365;28;20221;-57
2023/07/24 07:33:16;;;;;;;7.20;3.90;;;;;;;;;;5071266;28;20213;-57
2023/07/24 07:35:43;;;;;;;3.57;3.20;;;;;;;;;;5071297;28;20198;-57
2023/07/24 07:38:09;;;;;;;4.10;3.60;;;;;;;;;;5075601;28;20201;-57
2023/07/24 07:40:38;;;;;;;5.83;3.40;;;;;;;;;;5075199;28;20257;-57
2023/07/24 07:43:05;;;;;;;3.97;3.53;;;;;;;;;;5075104;28;20239;-57
2023/07/24 07:45:31;;;;;;;2.90;2.60;;;;;;;;;;5075200;28;20246;-57
2023/07/24 07:47:57;;;;;;;2.80;2.60;;;;;;;;;;5075165;28;20252;-58
2023/07/24 07:50:23;;;;;;;3.20;2.87;;;;;;;;;;5075206;28;20266;-58
2023/07/24 07:52:50;;;;;;;3.40;3.10;;;;;;;;;;5075154;28;20207;-58
2023/07/24 07:55:16;;;;;;;4.00;2.87;;;;;;;;;;5074926;28;20232;-58
2023/07/24 07:57:42;;;;;;;4.27;3.17;;;;;;;;;;5075074;28;20189;-58
2023/07/24 08:00:11;;;;;;;5.03;2.87;;;;;;;;;;5075331;28;20253;-58
2023/07/24 08:02:39;;;;;;;7.83;2.87;;;;;;;;;;5074928;28;20200;-58
2023/07/24 08:05:06;;;;;;;3.60;2.70;;;;;;;;;;5074790;28;20211;-58
2023/07/24 08:07:32;;;;;;;4.27;2.80;;;;;;;;;;5074696;28;20231;-58
2023/07/24 08:09:58;;;;;;;3.10;2.80;;;;;;;;;;5074728;28;20732;-58
2023/07/24 08:12:24;;;;;;;3.40;2.50;;;;;;;;;;5074798;28;20197;-57
2023/07/24 08:14:50;;;;;;;3.13;2.20;;;;;;;;;;5074761;28;20197;-57
2023/07/24 08:17:17;;;;;;;3.10;1.80;;;;;;;;;;5074533;28;20198;-57
2023/07/24 08:19:43;;;;;;;2.27;2.07;;;;;;;;;;5074602;28;20199;-57
2023/07/24 08:22:09;;;;;;;2.37;1.83;;;;;;;;;;5074688;28;20191;-57
2023/07/24 08:24:36;;;;;;;2.63;1.93;;;;;;;;;;5074634;28;20203;-56
2023/07/24 08:27:02;;;;;;;2.00;1.90;;;;;;;;;;5074419;28;20488;-57
2023/07/24 08:29:28;;;;;;;2.17;1.97;;;;;;;;;;5074323;28;20195;-57
2023/07/24 08:31:54;;;;;;;2.17;1.97;;;;;;;;;;5074587;28;20214;-59
2023/07/24 08:34:21;;;;;;;2.17;1.97;;;;;;;;;;5074283;28;20200;-60
2023/07/24 08:36:47;;;;;;;2.00;1.80;;;;;;;;;;5074165;28;20667;-58
2023/07/24 08:39:13;;;;;;;3.13;2.20;;;;;;;;;;5074113;28;20293;-57
2023/07/24 08:41:39;;;;;;;2.20;1.97;;;;;;;;;;5074258;28;20686;-56
2023/07/24 08:44:05;;;;;;;2.07;1.83;;;;;;;;;;5074497;28;20235;-57
2023/07/24 08:46:32;;;;;;;3.97;1.90;;;;;;;;;;5074201;28;20234;-57
2023/07/24 08:48:58;;;;;;;2.30;2.03;;;;;;;;;;5074405;28;20657;-57
2023/07/24 08:51:25;;;;;;;2.20;2.00;;;;;;;;;;5074518;28;20222;-57
2023/07/24 08:53:52;;;;;;;2.30;2.10;;;;;;;;;;5068449;28;20210;-57
2023/07/24 08:56:18;;;;;;;2.20;1.87;;;;;;;;;;5073344;28;20187;-58
2023/07/24 08:58:44;;;;;;;3.23;2.30;;;;;;;;;;5074190;28;20206;-58
2023/07/24 09:01:10;;;;;;;2.40;2.20;;;;;;;;;;5074346;28;20203;-58
2023/07/24 09:03:36;;;;;;;2.20;2.00;;;;;;;;;;5074074;28;20211;-57
2023/07/24 09:06:07;;;;;;;1.97;1.87;;;;;;;;;;5073790;28;20215;-58
2023/07/24 09:08:35;;;;;;;2.00;1.90;;;;;;;;;;5073627;28;20227;-60
2023/07/24 09:11:02;;;;;;;2.43;2.23;;;;;;;;;;5073963;28;20299;-58
2023/07/24 09:13:28;;;;;;;2.40;2.20;;;;;;;;;;5059342;28;20200;-59
2023/07/24 09:15:54;;;;;;;2.40;2.20;;;;;;;;;;5053980;28;20246;-58
2023/07/24 09:18:21;;;;;;;1.80;1.70;;;;;;;;;;5053774;28;20207;-59
2023/07/24 09:20:47;;;;;;;2.90;2.13;;;;;;;;;;5053550;28;20196;-59
2023/07/24 09:23:14;;;;;;;2.20;2.00;;;;;;;;;;5053761;28;20275;-59
2023/07/24 09:25:42;;;;;;;2.43;2.23;;;;;;;;;;5053779;28;20214;-59
2023/07/24 09:28:14;;;;;;;2.20;2.00;;;;;;;;;;5053758;28;20227;-60
2023/07/24 09:30:40;;;;;;;2.00;1.90;;;;;;;;;;5053669;28;20196;-59
2023/07/24 09:33:07;;;;;;;2.57;2.30;;;;;;;;;;5053200;28;20232;-59
2023/07/24 09:35:33;;;;;;;2.47;1.90;;;;;;;;;;5053382;28;20205;-60
2023/07/24 09:38:03;;;;;;;2.43;2.23;;;;;;;;;;5053191;28;20662;-60
2023/07/24 09:40:29;;;;;;;2.67;1.90;;;;;;;;;;5053280;28;20224;-60
2023/07/24 09:42:56;;;;;;;2.73;2.10;;;;;;;;;;5053042;28;20236;-60
2023/07/24 09:45:22;;;;;;;2.40;2.20;;;;;;;;;;5053076;28;20287;-59
2023/07/24 09:47:48;;;;;;;2.20;1.93;;;;;;;;;;5053187;28;20584;-58
2023/07/24 09:50:14;;;;;;;1.90;1.70;;;;;;;;;;5053161;28;20299;-58
2023/07/24 09:52:41;;;;;;;2.50;2.20;;;;;;;;;;5053088;28;20660;-58
2023/07/24 09:55:11;;;;;;;5.10;2.17;;;;;;;;;;5053157;28;20610;-58
2023/07/24 09:57:37;;;;;;;3.17;2.20;;;;;;;;;;5052860;28;20262;-57
2023/07/24 10:00:07;;;;;;;1.90;1.80;;;;;;;;;;5052162;28;20682;-57
2023/07/24 10:02:33;;;;;;;2.00;1.90;;;;;;;;;;5052798;28;20347;-58
2023/07/24 10:04:59;;;;;;;2.30;2.10;;;;;;;;;;5052910;28;20220;-58
2023/07/24 10:07:26;;;;;;;3.13;2.33;;;;;;;;;;5052870;28;20227;-58
2023/07/24 10:09:52;;;;;;;2.17;2.00;;;;;;;;;;5052518;28;20596;-57
2023/07/24 10:12:19;;;;;;;2.10;1.90;;;;;;;;;;5052765;28;20246;-56
2023/07/24 10:14:45;;;;;;;2.47;2.27;;;;;;;;;;5052741;28;20626;-56
2023/07/24 10:17:13;;;;;;;3.93;2.60;;;;;;;;;;5052758;28;20185;-57
2023/07/24 10:19:40;;;;;;;2.50;2.30;;;;;;;;;;5052661;28;20269;-57
2023/07/24 10:22:06;;;;;;;2.13;1.93;;;;;;;;;;5052409;28;20200;-58
2023/07/24 10:24:33;;;;;;;2.73;2.53;;;;;;;;;;5052404;28;20227;-59
2023/07/24 10:26:59;;;;;;;2.83;1.93;;;;;;;;;;5052420;28;20235;-59
2023/07/24 10:29:25;;;;;;;2.20;2.00;;;;;;;;;;5052446;28;20258;-59
2023/07/24 10:31:55;;;;;;;2.43;2.10;;;;;;;;;;5052448;28;20225;-58
2023/07/24 10:34:23;;;;;;;2.40;2.20;;;;;;;;;;5052180;28;20583;-58
2023/07/24 10:36:49;;;;;;;3.57;2.00;;;;;;;;;;5052473;28;20199;-59
2023/07/24 10:39:15;;;;;;;2.90;2.10;;;;;;;;;;5052251;28;20202;-58
2023/07/24 10:41:41;;;;;;;2.93;2.23;;;;;;;;;;5052391;28;20200;-59
2023/07/24 10:44:07;;;;;;;3.87;2.10;;;;;;;;;;5052152;28;20289;-58
2023/07/24 10:46:37;;;;;;;3.07;2.00;;;;;;;;;;5051673;28;20721;-58
2023/07/24 10:49:03;;;;;;;4.70;2.20;;;;;;;;;;5052248;28;20286;-58
2023/07/24 10:51:37;;;;;;;3.50;2.47;;;;;;;;;;5052269;28;20199;-58
2023/07/24 10:54:03;;;;;;;2.07;1.97;;;;;;;;;;5050959;28;20212;-59
2023/07/24 10:56:29;;;;;;;1.90;1.70;;;;;;;;;;5051766;28;20200;-60
2023/07/24 10:58:55;;;;;;;2.10;2.00;;;;;;;;;;5051849;28;20278;-59
2023/07/24 11:01:21;;;;;;;2.17;1.97;;;;;;;;;;5051948;28;20195;-59
2023/07/24 11:03:47;;;;;;;3.70;1.70;;;;;;;;;;5049991;28;20650;-59
2023/07/24 11:06:15;;;;;;;1.47;1.37;;;;;;;;;;5050968;28;20230;-59
2023/07/24 11:08:42;;;;;;;1.70;1.60;;;;;;;;;;5051954;28;20204;-59
2023/07/24 11:11:09;;;;;;;1.40;1.30;;;;;;;;;;5051899;28;20216;-59
2023/07/24 11:13:35;;;;;;;1.40;1.30;;;;;;;;;;5051821;28;20258;-58
2023/07/24 11:16:05;;;;;;;1.60;1.50;;;;;;;;;;5051803;28;20993;-59
2023/07/24 11:18:31;;;;;;;4.30;1.60;;;;;;;;;;5051566;28;20303;-59
2023/07/24 11:20:57;;;;;;;1.57;1.47;;;;;;;;;;5051967;28;20193;-59
2023/07/24 11:23:23;;;;;;;2.13;1.43;;;;;;;;;;5051808;28;20192;-59
2023/07/24 11:25:52;;;;;;;2.53;1.33;;;;;;;;;;5051844;28;20200;-59
2023/07/24 11:28:18;;;;;;;1.50;1.40;;;;;;;;;;5051654;28;20234;-59
2023/07/24 11:30:44;;;;;;;2.43;1.60;;;;;;;;;;5051855;28;20196;-60
2023/07/24 11:33:10;;;;;;;2.83;1.67;;;;;;;;;;5051740;28;20198;-60
2023/07/24 11:35:40;;;;;;;2.00;1.80;;;;;;;;;;5051598;28;20288;-60
2023/07/24 11:38:06;;;;;;;2.90;1.70;;;;;;;;;;5051754;28;20234;-60
2023/07/24 11:40:33;;;;;;;2.03;1.83;;;;;;;;;;5051447;28;20204;-60
2023/07/24 11:43:00;;;;;;;3.50;1.80;;;;;;;;;;5051290;28;20247;-60
2023/07/24 11:45:26;;;;;;;1.83;1.73;;;;;;;;;;5051412;28;20208;-60
2023/07/24 11:47:53;;;;;;;3.10;2.00;;;;;;;;;;5051608;28;20230;-60
2023/07/24 11:50:20;;;;;;;2.00;1.80;;;;;;;;;;5051574;28;20207;-60
2023/07/24 11:52:47;;;;;;;2.00;1.80;;;;;;;;;;5051448;28;20616;-60
2023/07/24 11:55:14;;;;;;;2.17;1.80;;;;;;;;;;5051385;28;20751;-60
2023/07/24 11:57:40;;;;;;;2.00;1.80;;;;;;;;;;5051529;28;20264;-60
2023/07/24 12:00:19;;;;;;;2.00;1.80;;;;;;;;;;5051483;28;20220;-60
2023/07/24 12:02:45;;;;;;;2.20;2.00;;;;;;;;;;5051459;28;20292;-60
2023/07/24 12:05:11;;;;;;;2.40;2.20;;;;;;;;;;5051445;28;20303;-60
2023/07/24 12:07:37;;;;;;;2.87;2.30;;;;;;;;;;5051285;28;20221;-60
2023/07/24 12:10:04;;;;;;;3.03;2.17;;;;;;;;;;5051327;28;20211;-60
2023/07/24 12:12:40;;;;;;;2.93;2.13;;;;;;;;;;5051147;28;20649;-60
2023/07/24 12:15:08;;;;;;;2.40;2.20;;;;;;;;;;5051317;28;20297;-60
2023/07/24 12:17:34;;;;;;;4.43;2.50;;;;;;;;;;5051074;28;20697;-57
2023/07/24 12:20:01;;;;;;;2.83;2.63;;;;;;;;;;5051095;28;20197;-62
2023/07/24 12:22:27;;;;;;;2.40;2.20;;;;;;;;;;5052412;28;20618;-60
2023/07/24 12:24:53;;;;;;;2.40;2.20;;;;;;;;;;5055031;28;20243;-58
2023/07/24 12:27:19;;;;;;;2.60;2.40;;;;;;;;;;5054815;28;20228;-58
2023/07/24 12:29:45;;;;;;;2.40;2.20;;;;;;;;;;5054744;28;20211;-59
2023/07/24 12:32:12;;;;;;;2.33;2.13;;;;;;;;;;5054961;28;20196;-59
2023/07/24 12:34:38;;;;;;;3.20;2.40;;;;;;;;;;5054662;28;20664;-59
2023/07/24 12:37:04;;;;;;;2.47;2.20;;;;;;;;;;5054712;28;20296;-59
2023/07/24 12:39:30;;;;;;;3.00;2.20;;;;;;;;;;5054312;28;20224;-59
2023/07/24 12:41:56;;;;;;;2.70;2.47;;;;;;;;;;5054608;28;20235;-59
2023/07/24 12:44:23;;;;;;;2.53;2.30;;;;;;;;;;5054373;28;20366;-59
2023/07/24 12:46:49;;;;;;;2.50;2.13;;;;;;;;;;5054491;28;20224;-59
2023/07/24 12:49:16;;;;;;;4.37;2.40;;;;;;;;;;5054442;28;20283;-59
2023/07/24 12:51:42;;;;;;;2.83;2.53;;;;;;;;;;5054460;28;20655;-58
2023/07/24 12:54:08;;;;;;;2.60;2.40;;;;;;;;;;5054499;28;20299;-58
2023/07/24 12:56:34;;;;;;;3.80;2.20;;;;;;;;;;5054256;28;20192;-58
2023/07/24 12:59:01;;;;;;;2.50;2.30;;;;;;;;;;5054258;28;20542;-58
2023/07/24 13:01:28;;;;;;;2.50;2.30;;;;;;;;;;5054167;28;20205;-59
2023/07/24 13:03:54;;;;;;;2.23;2.03;;;;;;;;;;5054343;28;20580;-58
2023/07/24 13:06:22;;;;;;;2.50;2.30;;;;;;;;;;5053875;28;20224;-58
2023/07/24 13:08:48;;;;;;;3.47;2.30;;;;;;;;;;5054141;28;20200;-58
2023/07/24 13:11:14;;;;;;;2.50;2.30;;;;;;;;;;5054073;28;20196;-61
2023/07/24 13:13:40;;;;;;;2.60;2.40;;;;;;;;;;5054079;28;20254;-57
2023/07/24 13:16:06;;;;;;;3.30;2.20;;;;;;;;;;5054071;28;20196;-56
2023/07/24 13:18:32;;;;;;;2.60;2.40;;;;;;;;;;5053913;28;20196;-56
2023/07/24 13:20:58;;;;;;;2.80;2.60;;;;;;;;;;5053936;28;20200;-56
2023/07/24 13:23:26;;;;;;;2.50;2.30;;;;;;;;;;5051826;28;20231;-56
2023/07/24 13:25:52;;;;;;;3.90;2.70;;;;;;;;;;5053666;28;20200;-56
2023/07/24 13:28:18;;;;;;;4.80;2.57;;;;;;;;;;5053203;28;20314;-57
2023/07/24 13:30:45;;;;;;;2.50;2.30;;;;;;;;;;5053427;28;20601;-57
2023/07/24 13:33:11;;;;;;;2.40;2.20;;;;;;;;;;5052958;28;20193;-57
2023/07/24 13:35:37;;;;;;;2.53;2.33;;;;;;;;;;5052587;28;20674;-57
2023/07/24 13:38:03;;;;;;;2.83;2.57;;;;;;;;;;5053140;28;20548;-57
2023/07/24 13:40:31;;;;;;;4.10;2.50;;;;;;;;;;5052859;28;20667;-57
2023/07/24 13:42:57;;;;;;;2.83;2.63;;;;;;;;;;5053003;28;20327;-57
2023/07/24 13:45:23;;;;;;;3.23;2.77;;;;;;;;;;5053017;28;20707;-57
2023/07/24 13:47:49;;;;;;;3.23;2.57;;;;;;;;;;5052934;28;20228;-57
2023/07/24 13:50:15;;;;;;;2.43;2.23;;;;;;;;;;5052953;28;20204;-57
2023/07/24 13:52:41;;;;;;;2.50;2.30;;;;;;;;;;5052864;28;20192;-57
2023/07/24 13:55:07;;;;;;;3.20;2.80;;;;;;;;;;5052943;28;20219;-57
2023/07/24 13:57:35;;;;;;;3.20;2.90;;;;;;;;;;5052788;28;20637;-57
2023/07/24 14:00:01;;;;;;;2.60;2.40;;;;;;;;;;5052793;28;20207;-57
2023/07/24 14:02:27;;;;;;;2.60;2.40;;;;;;;;;;5052652;28;20224;-57
2023/07/24 14:04:53;;;;;;;3.23;2.40;;;;;;;;;;5052754;28;20243;-57
2023/07/24 14:07:19;;;;;;;5.97;2.50;;;;;;;;;;5052548;28;20285;-57
2023/07/24 14:09:45;;;;;;;4.17;2.10;;;;;;;;;;5052582;28;20541;-56
2023/07/24 14:12:11;;;;;;;2.67;2.47;;;;;;;;;;5052653;28;20195;-57
2023/07/24 14:14:39;;;;;;;2.30;2.10;;;;;;;;;;5052424;28;20196;-57
2023/07/24 14:17:05;;;;;;;3.13;2.40;;;;;;;;;;5052394;28;20705;-57
2023/07/24 14:19:31;;;;;;;2.67;2.33;;;;;;;;;;5052292;28;20279;-57
2023/07/24 14:21:57;;;;;;;3.33;2.30;;;;;;;;;;5052394;28;20202;-57
2023/07/24 14:24:23;;;;;;;2.37;2.17;;;;;;;;;;5052371;28;20199;-56
2023/07/24 14:26:49;;;;;;;3.03;2.37;;;;;;;;;;5052113;28;20224;-56
2023/07/24 14:29:17;;;;;;;2.70;2.13;;;;;;;;;;5052370;28;20204;-56
2023/07/24 14:31:44;;;;;;;2.70;2.50;;;;;;;;;;5052189;28;20219;-56
2023/07/24 14:34:12;;;;;;;2.70;2.30;;;;;;;;;;5052267;28;20282;-56
2023/07/24 14:36:38;;;;;;;5.77;2.30;;;;;;;;;;5052038;28;20210;-56
2023/07/24 14:39:04;;;;;;;3.03;2.30;;;;;;;;;;5051953;28;20249;-56